CheckWX is a tool to help pilots better visualize weather data.  It is not intended as a substitute for an official pre-flight weather briefing.

18:01:03 UTC

KBTR METAR
Baton Rouge Metropolitan, Ryan Field Airport
Baton Rouge, Louisiana, USA
Current

6 mins ago

KBTR 181755Z 21006KT 10SM FEW041 33/23 A2999 RMK AO2 T03330233 $
Observed
Aug-18 @ 17:55 UTC
Wind
  • 210° at 6 KTS
Visibility
10 SM
Flight Rules
VFR
Cloud Levels
  • Few at 4,100' AGL
Temperature
33°C / 91°F
Dewpoint
23°C / 73°F
Heat Index
38°C / 100°F
Humidity
56%
Altimeter
29.99" Hg
Pressure
1015.62 hPa
Previous

1 hour ago

KBTR 181653Z 24006KT 10SM BKN026 32/24 A3000 RMK AO2 SLP156 T03220239 $
Observed
Aug-18 @ 16:53 UTC
Wind
  • 240° at 6 KTS
Visibility
10 SM
Flight Rules
MVFR
Cloud Levels
  • Broken at 2,600' AGL
Temperature
32°C / 90°F
Dewpoint
24°C / 75°F
Heat Index
38°C / 101°F
Humidity
63%
Altimeter
30" Hg
Pressure
1015.92 hPa
Previous

2 hours ago

KBTR 181553Z 25007KT 10SM CLR 32/24 A2999 RMK AO2 SLP155 T03170239 $
Observed
Aug-18 @ 15:53 UTC
Wind
  • 250° at 7 KTS
Visibility
10 SM
Flight Rules
VFR
Cloud Levels
  • Clear skies
Temperature
32°C / 90°F
Dewpoint
24°C / 75°F
Heat Index
38°C / 101°F
Humidity
63%
Altimeter
29.99" Hg
Pressure
1015.62 hPa